createdAt,value
2022-11-18T00:00:23.712Z,5.07
2022-11-18T00:02:54.408Z,5.57
2022-11-18T00:04:15.895Z,5.41
2022-11-18T00:05:37.485Z,5.65
2022-11-18T00:06:59.167Z,5.29
2022-11-18T00:08:21.259Z,5.53
2022-11-18T00:09:43.317Z,5.32
2022-11-18T00:12:16.832Z,5.72
2022-11-18T00:13:38.515Z,5.54
2022-11-18T00:15:00.209Z,5.54
2022-11-18T00:16:21.761Z,5.31
2022-11-18T00:17:43.097Z,5.76
2022-11-18T00:19:04.325Z,5.08
2022-11-18T00:20:25.478Z,4.91
2022-11-18T00:21:46.999Z,5.11
2022-11-18T00:23:59.906Z,4.43
2022-11-18T00:25:21.553Z,5.38
2022-11-18T00:26:43.203Z,5.26
2022-11-18T00:28:04.300Z,5.28
2022-11-18T00:29:26.862Z,5.19
2022-11-18T00:30:48.428Z,5.06
2022-11-18T00:32:10.064Z,4.98
2022-11-18T00:33:31.795Z,5.09
2022-11-18T00:34:53.056Z,5.41
2022-11-18T00:36:14.548Z,5.11
2022-11-18T00:37:35.799Z,4.91
2022-11-18T00:38:57.030Z,5.12
2022-11-18T00:40:21.518Z,5.17
2022-11-18T00:41:46.658Z,5.18
2022-11-18T00:43:07.807Z,5.42
2022-11-18T00:44:29.454Z,5.53
2022-11-18T00:45:50.496Z,5.10
2022-11-18T00:47:12.124Z,5.52
2022-11-18T00:48:33.751Z,5.48
2022-11-18T00:49:55.249Z,5.44
2022-11-18T00:51:17.374Z,5.42
2022-11-18T00:52:38.796Z,5.33
2022-11-18T00:54:00.317Z,5.56
2022-11-18T00:55:22.029Z,5.00
2022-11-18T00:56:43.439Z,5.14
2022-11-18T00:58:04.889Z,5.66
2022-11-18T00:59:26.895Z,4.91
2022-11-18T01:00:50.417Z,5.34
2022-11-18T01:02:12.062Z,5.25
2022-11-18T01:03:33.793Z,5.54
2022-11-18T01:04:55.157Z,5.34
2022-11-18T01:06:16.792Z,5.33
2022-11-18T01:07:38.388Z,5.37
2022-11-18T01:08:59.838Z,5.40
2022-11-18T01:10:21.450Z,5.39
2022-11-18T01:11:42.998Z,5.37
2022-11-18T01:13:05.098Z,5.24
2022-11-18T01:14:26.466Z,5.44
2022-11-18T01:15:50.373Z,5.84
2022-11-18T01:17:11.702Z,5.42
2022-11-18T01:18:33.078Z,5.23
2022-11-18T01:19:54.250Z,5.52
2022-11-18T01:21:15.584Z,5.09
2022-11-18T01:22:37.082Z,5.36
2022-11-18T01:23:58.152Z,4.91
2022-11-18T01:25:19.637Z,4.80
2022-11-18T01:26:41.587Z,5.16
2022-11-18T01:28:03.351Z,4.85
2022-11-18T01:29:24.934Z,4.21
2022-11-18T01:30:46.439Z,5.49
2022-11-18T01:32:25.019Z,4.94
2022-11-18T01:33:31.244Z,5.19
2022-11-18T01:34:52.762Z,5.08
2022-11-18T01:36:19.870Z,5.52
2022-11-18T01:37:41.496Z,5.38
2022-11-18T01:39:02.789Z,4.61
2022-11-18T01:40:26.029Z,5.14
2022-11-18T01:41:46.998Z,5.27
2022-11-18T01:43:19.363Z,5.07
2022-11-18T01:45:07.390Z,5.06
2022-11-18T01:46:30.218Z,4.96
2022-11-18T01:49:15.145Z,4.21
2022-11-18T01:51:55.105Z,4.88
2022-11-18T01:53:20.200Z,5.22
2022-11-18T01:54:43.292Z,4.90
2022-11-18T01:56:07.695Z,5.02
2022-11-18T01:57:28.825Z,5.59
2022-11-18T01:59:08.046Z,5.68
2022-11-18T02:00:29.156Z,4.97
2022-11-18T02:01:53.019Z,4.94
2022-11-18T02:03:13.642Z,5.31
2022-11-18T02:04:35.021Z,5.43
2022-11-18T02:05:56.441Z,5.73
2022-11-18T02:07:18.676Z,5.49
2022-11-18T02:08:40.256Z,5.24
2022-11-18T02:10:01.967Z,5.40
2022-11-18T02:11:23.238Z,5.91
2022-11-18T02:12:44.693Z,5.43
2022-11-18T02:14:07.803Z,5.51
2022-11-18T02:17:23.172Z,4.93
2022-11-18T02:18:56.810Z,5.13
2022-11-18T02:20:21.972Z,5.27
2022-11-18T02:22:04.817Z,5.22
2022-11-18T02:23:51.044Z,5.16
2022-11-18T02:25:25.221Z,5.58
2022-11-18T02:27:15.910Z,5.17
2022-11-18T02:29:06.294Z,5.17
2022-11-18T02:30:27.865Z,5.38
2022-11-18T02:31:58.360Z,5.16
2022-11-18T02:33:35.289Z,5.63
2022-11-18T02:36:21.972Z,5.56
2022-11-18T02:37:56.161Z,5.24
2022-11-18T02:39:21.441Z,5.12
2022-11-18T02:40:56.370Z,5.44
2022-11-18T02:42:17.758Z,5.48
2022-11-18T02:44:59.553Z,5.53
2022-11-18T02:47:53.580Z,5.54
2022-11-18T02:49:19.112Z,5.63
2022-11-18T02:50:41.464Z,5.83
2022-11-18T02:52:03.982Z,5.71
2022-11-18T02:53:25.183Z,5.36
2022-11-18T02:54:47.233Z,5.72
2022-11-18T02:56:09.077Z,5.63
2022-11-18T02:57:30.619Z,5.43
2022-11-18T02:58:52.010Z,5.66
2022-11-18T03:00:14.637Z,4.69
2022-11-18T03:01:36.230Z,5.26
2022-11-18T03:02:57.730Z,5.64
2022-11-18T03:04:19.322Z,5.61
2022-11-18T03:05:44.588Z,5.11
2022-11-18T03:07:29.883Z,4.98
2022-11-18T03:09:16.702Z,4.77
2022-11-18T03:10:54.202Z,6.09
2022-11-18T03:12:33.908Z,8.79
2022-11-18T03:14:04.922Z,8.27
2022-11-18T03:15:36.125Z,8.03
2022-11-18T03:17:10.667Z,5.72
2022-11-18T03:19:53.963Z,5.44
2022-11-18T03:22:38.135Z,16.95
2022-11-18T03:24:14.481Z,5.10
2022-11-18T03:25:48.172Z,6.57
2022-11-18T03:27:22.052Z,12.91
2022-11-18T03:28:46.428Z,8.31
2022-11-18T03:30:09.973Z,6.06
2022-11-18T03:32:45.103Z,8.34
2022-11-18T03:34:12.802Z,17.29
2022-11-18T03:35:35.150Z,12.06
2022-11-18T03:37:00.647Z,16.32
2022-11-18T03:38:27.118Z,28.89
2022-11-18T03:39:51.500Z,22.31
2022-11-18T03:41:12.603Z,10.67
2022-11-18T03:45:26.146Z,9.28
2022-11-18T03:46:51.041Z,7.72
2022-11-18T03:48:15.708Z,6.34
2022-11-18T03:49:42.604Z,5.97
2022-11-18T03:51:08.851Z,6.13
2022-11-18T03:52:31.847Z,7.12
2022-11-18T03:53:58.480Z,6.27
2022-11-18T03:55:28.550Z,5.88
2022-11-18T03:56:56.124Z,7.02
2022-11-18T03:58:34.976Z,5.96
2022-11-18T04:00:06.793Z,6.23
2022-11-18T04:01:37.552Z,6.21
2022-11-18T04:02:59.820Z,6.24
2022-11-18T04:04:21.435Z,6.36
2022-11-18T04:05:42.500Z,5.57
2022-11-18T04:07:07.888Z,5.56
2022-11-18T04:08:33.018Z,5.82
2022-11-18T04:09:59.230Z,5.81
2022-11-18T04:11:26.329Z,5.56
2022-11-18T04:14:03.792Z,5.56
2022-11-18T04:15:25.151Z,6.08
2022-11-18T04:16:49.769Z,5.76
2022-11-18T04:18:11.375Z,5.94
2022-11-18T04:19:32.614Z,5.97
2022-11-18T04:20:54.037Z,5.61
2022-11-18T04:22:15.341Z,5.89
2022-11-18T04:23:36.701Z,5.59
2022-11-18T04:24:58.162Z,6.24
2022-11-18T04:26:19.471Z,6.60
2022-11-18T04:27:41.116Z,6.04
2022-11-18T04:29:02.130Z,6.37
2022-11-18T04:30:23.481Z,6.36
2022-11-18T04:31:45.116Z,7.06
2022-11-18T04:33:06.606Z,6.76
2022-11-18T04:34:28.358Z,6.57
2022-11-18T04:35:49.616Z,6.13
2022-11-18T04:37:11.159Z,12.28
2022-11-18T04:38:32.495Z,19.43
2022-11-18T04:39:54.026Z,11.21
2022-11-18T04:41:15.374Z,11.85
2022-11-18T04:42:36.873Z,7.79
2022-11-18T04:43:58.235Z,6.66
2022-11-18T04:45:19.246Z,6.49
2022-11-18T04:46:41.530Z,5.89
2022-11-18T04:48:03.953Z,6.09
2022-11-18T04:49:25.744Z,5.88
2022-11-18T04:50:47.161Z,6.00
2022-11-18T04:52:08.769Z,6.88
2022-11-18T04:53:30.129Z,6.26
2022-11-18T04:54:53.031Z,6.12
2022-11-18T04:56:14.604Z,6.66
2022-11-18T04:57:35.844Z,10.59
2022-11-18T04:59:48.870Z,7.70
2022-11-18T05:01:10.551Z,6.45
2022-11-18T05:02:34.247Z,6.54
2022-11-18T05:03:56.125Z,7.47
2022-11-18T05:05:17.754Z,5.82
2022-11-18T05:06:39.774Z,6.96
2022-11-18T05:08:01.360Z,6.95
2022-11-18T05:09:25.975Z,6.42
2022-11-18T05:10:45.836Z,6.30
2022-11-18T05:12:13.556Z,7.30
2022-11-18T05:13:34.965Z,8.68
2022-11-18T05:14:58.725Z,10.39
2022-11-18T05:16:19.898Z,13.20
2022-11-18T05:17:41.313Z,10.01
2022-11-18T05:19:03.469Z,6.35
2022-11-18T05:20:24.824Z,7.42
2022-11-18T05:21:46.251Z,7.51
2022-11-18T05:23:09.326Z,7.17
2022-11-18T05:24:31.002Z,12.03
2022-11-18T05:25:52.398Z,11.03
2022-11-18T05:27:16.739Z,8.01
2022-11-18T05:28:38.142Z,8.81
2022-11-18T05:29:59.454Z,6.55
2022-11-18T05:31:20.861Z,7.79
2022-11-18T05:32:42.255Z,8.76
2022-11-18T05:34:03.858Z,14.80
2022-11-18T05:35:25.214Z,12.04
2022-11-18T05:36:47.979Z,7.03
2022-11-18T05:38:09.385Z,7.14
2022-11-18T05:39:32.501Z,8.85
2022-11-18T05:40:54.203Z,8.30
2022-11-18T05:42:16.361Z,7.92
2022-11-18T05:43:39.036Z,6.33
2022-11-18T05:45:00.458Z,7.47
2022-11-18T05:46:21.795Z,9.15
2022-11-18T05:47:42.883Z,10.42
2022-11-18T05:49:04.166Z,12.26
2022-11-18T05:50:25.884Z,38.14
2022-11-18T05:51:47.156Z,45.64
2022-11-18T05:53:08.480Z,12.31
2022-11-18T05:54:29.981Z,8.73
2022-11-18T05:56:18.945Z,12.52
2022-11-18T05:57:40.116Z,9.48
2022-11-18T05:59:01.895Z,6.94
2022-11-18T06:00:23.049Z,6.63
2022-11-18T06:02:00.091Z,5.97
2022-11-18T06:03:30.513Z,6.41
2022-11-18T06:06:04.592Z,6.54
2022-11-18T06:08:44.153Z,8.27
2022-11-18T06:10:06.403Z,8.57
2022-11-18T06:11:33.380Z,8.39
2022-11-18T06:12:58.395Z,8.76
2022-11-18T06:15:39.940Z,7.62
2022-11-18T06:17:02.257Z,7.34
2022-11-18T06:18:26.275Z,7.61
2022-11-18T06:19:51.989Z,7.58
2022-11-18T06:21:13.639Z,7.57
2022-11-18T06:22:35.143Z,7.05
2022-11-18T06:23:56.579Z,7.73
2022-11-18T06:25:19.867Z,8.62
2022-11-18T06:28:02.412Z,7.14
2022-11-18T06:29:27.869Z,6.97
2022-11-18T06:30:49.921Z,6.86
2022-11-18T06:32:12.610Z,7.32
2022-11-18T06:33:33.881Z,8.00
2022-11-18T06:34:57.149Z,8.48
2022-11-18T06:36:18.687Z,10.61
2022-11-18T06:37:40.241Z,9.34
2022-11-18T06:39:05.434Z,8.51
2022-11-18T06:40:31.637Z,11.02
2022-11-18T06:41:52.687Z,9.30
2022-11-18T06:43:13.995Z,9.58
2022-11-18T06:44:37.574Z,9.61
2022-11-18T06:46:04.736Z,9.63
2022-11-18T06:47:24.867Z,8.00
2022-11-18T06:48:46.079Z,9.22
2022-11-18T06:50:08.636Z,12.10
2022-11-18T06:51:48.344Z,6.94
2022-11-18T06:53:09.639Z,7.94
2022-11-18T06:54:33.989Z,7.38
2022-11-18T06:55:55.464Z,7.04
2022-11-18T06:57:20.247Z,7.64
2022-11-18T06:58:42.422Z,8.57
2022-11-18T07:00:06.873Z,7.15
2022-11-18T07:01:29.583Z,8.51
2022-11-18T07:02:51.400Z,9.56
2022-11-18T07:04:22.171Z,7.23
2022-11-18T07:05:45.244Z,7.92
2022-11-18T07:07:07.513Z,6.96
2022-11-18T07:08:29.048Z,7.28
2022-11-18T07:09:50.713Z,7.50
2022-11-18T07:11:15.694Z,7.67
2022-11-18T07:12:37.220Z,9.72
2022-11-18T07:13:59.593Z,8.94
2022-11-18T07:15:21.079Z,8.26
2022-11-18T07:16:42.802Z,6.83
2022-11-18T07:18:20.278Z,9.66
2022-11-18T07:19:41.682Z,14.82
2022-11-18T07:21:18.804Z,9.93
2022-11-18T07:22:41.401Z,9.96
2022-11-18T07:24:05.125Z,9.38
2022-11-18T07:25:31.772Z,21.39
2022-11-18T07:26:55.943Z,11.54
2022-11-18T07:28:18.103Z,9.86
2022-11-18T07:29:42.080Z,8.57
2022-11-18T07:34:24.432Z,6.68
2022-11-18T07:35:45.612Z,7.11
2022-11-18T07:37:07.050Z,6.67
2022-11-18T07:38:28.743Z,8.72
2022-11-18T07:39:50.039Z,8.81
2022-11-18T07:41:16.135Z,7.38
2022-11-18T07:42:37.645Z,7.73
2022-11-18T07:44:01.144Z,7.74
2022-11-18T07:45:22.672Z,7.47
2022-11-18T07:46:43.701Z,7.25
2022-11-18T07:48:05.107Z,8.60
2022-11-18T07:49:28.670Z,8.59
2022-11-18T07:50:50.120Z,7.72
2022-11-18T07:52:13.576Z,7.85
2022-11-18T07:54:55.677Z,6.22
2022-11-18T07:56:17.988Z,7.71
2022-11-18T07:57:39.173Z,7.11
2022-11-18T07:59:02.094Z,7.16
2022-11-18T08:00:23.475Z,9.48
2022-11-18T08:01:44.797Z,7.37
2022-11-18T08:03:06.212Z,7.25
2022-11-18T08:04:27.610Z,7.09
2022-11-18T08:05:49.052Z,6.97
2022-11-18T08:07:11.742Z,6.74
2022-11-18T08:08:33.121Z,6.29
2022-11-18T08:09:54.706Z,5.42
2022-11-18T08:11:22.177Z,5.29
2022-11-18T08:12:40.927Z,6.13
2022-11-18T08:14:02.352Z,6.52
2022-11-18T08:15:24.298Z,7.31
2022-11-18T08:16:45.997Z,5.95
2022-11-18T08:18:13.523Z,6.18
2022-11-18T08:19:34.088Z,5.96
2022-11-18T08:21:03.270Z,4.98
2022-11-18T08:22:24.691Z,5.44
2022-11-18T08:23:53.277Z,5.89
2022-11-18T08:25:16.238Z,6.64
2022-11-18T08:26:37.565Z,6.13
2022-11-18T08:27:59.412Z,5.99
2022-11-18T08:29:24.922Z,5.73
2022-11-18T08:30:45.054Z,11.26
2022-11-18T08:32:06.234Z,7.32
2022-11-18T08:33:27.901Z,8.71
2022-11-18T08:34:50.370Z,5.38
2022-11-18T08:36:17.056Z,5.17
2022-11-18T08:37:40.032Z,9.04
2022-11-18T08:40:23.899Z,7.94
2022-11-18T08:41:45.565Z,5.99
2022-11-18T08:43:10.653Z,10.67
2022-11-18T08:44:32.327Z,5.84
2022-11-18T08:45:53.887Z,6.15
2022-11-18T08:47:15.286Z,6.29
2022-11-18T08:48:36.708Z,7.18
2022-11-18T08:49:57.934Z,7.34
2022-11-18T08:51:19.872Z,5.52
2022-11-18T08:52:43.201Z,7.48
2022-11-18T08:54:05.243Z,6.68
2022-11-18T08:55:26.633Z,5.77
2022-11-18T08:56:47.771Z,5.38
2022-11-18T08:58:10.307Z,4.97
2022-11-18T08:59:31.694Z,6.66
2022-11-18T09:00:55.937Z,7.07
2022-11-18T09:02:19.307Z,7.46
2022-11-18T09:05:01.630Z,5.17
2022-11-18T09:06:22.816Z,9.55
2022-11-18T09:07:44.209Z,16.17
2022-11-18T09:09:06.854Z,10.36
2022-11-18T09:10:28.327Z,7.12
2022-11-18T09:11:49.501Z,31.26
2022-11-18T09:13:40.479Z,15.45
2022-11-18T09:17:23.946Z,6.74
2022-11-18T09:18:45.438Z,7.61
2022-11-18T09:20:09.253Z,8.39
2022-11-18T09:21:30.373Z,6.75
2022-11-18T09:22:52.744Z,6.56
2022-11-18T09:24:13.742Z,6.68
2022-11-18T09:25:35.166Z,7.53
2022-11-18T09:26:56.564Z,7.47
2022-11-18T09:28:17.623Z,7.38
2022-11-18T09:29:39.581Z,9.84
2022-11-18T09:31:11.694Z,9.02
2022-11-18T09:32:33.274Z,7.97
2022-11-18T09:35:21.063Z,9.93
2022-11-18T09:36:42.808Z,7.30
2022-11-18T09:38:04.198Z,8.61
2022-11-18T09:39:25.298Z,7.76
2022-11-18T09:41:23.572Z,7.39
2022-11-18T09:44:33.076Z,7.36
2022-11-18T09:47:34.946Z,7.36
2022-11-18T09:49:00.782Z,5.55
2022-11-18T09:50:48.480Z,5.85
2022-11-18T09:51:52.253Z,5.70
2022-11-18T09:53:25.899Z,15.10
2022-11-18T09:54:49.580Z,8.56
2022-11-18T09:56:14.999Z,10.66
2022-11-18T09:59:03.439Z,7.32
2022-11-18T18:11:56.880Z,21.08
2022-11-18T18:14:47.724Z,15.51
2022-11-18T18:16:11.823Z,14.25
2022-11-18T18:18:57.751Z,12.58
2022-11-18T18:20:18.799Z,9.72
2022-11-18T18:21:40.757Z,12.02
2022-11-18T18:23:05.867Z,12.00
2022-11-18T18:24:27.132Z,10.81
2022-11-18T18:25:56.119Z,10.51
2022-11-18T18:27:22.729Z,10.01
2022-11-18T18:28:44.557Z,10.03
2022-11-18T18:30:09.892Z,10.12
2022-11-18T18:31:35.356Z,10.35
2022-11-18T18:33:01.257Z,10.13
2022-11-18T18:36:04.455Z,10.43
2022-11-18T18:37:28.393Z,8.42
2022-11-18T18:38:50.736Z,10.83
2022-11-18T18:40:16.138Z,11.23
2022-11-18T18:41:39.508Z,10.88
2022-11-18T18:43:04.073Z,10.16
2022-11-18T18:44:27.679Z,9.73
2022-11-18T18:49:07.062Z,10.05
2022-11-18T18:52:17.692Z,9.17
2022-11-18T18:53:41.592Z,9.95
2022-11-18T18:55:04.610Z,9.52
2022-11-18T18:58:31.145Z,9.59
2022-11-18T19:01:37.628Z,9.74
2022-11-18T19:03:00.184Z,9.49
2022-11-18T19:04:22.085Z,9.96
2022-11-18T19:07:38.165Z,9.44
2022-11-18T19:12:34.484Z,9.79
2022-11-18T19:14:18.584Z,9.78
2022-11-18T19:15:43.100Z,9.29
2022-11-18T19:17:10.559Z,10.21
2022-11-18T19:18:35.695Z,9.86
2022-11-18T19:19:57.200Z,9.91
2022-11-18T19:21:23.316Z,7.62
2022-11-18T19:24:48.603Z,9.54
2022-11-18T19:26:03.458Z,10.44
2022-11-18T19:27:27.277Z,9.85
2022-11-18T19:28:48.753Z,9.97
2022-11-18T19:30:11.305Z,9.96
2022-11-18T19:31:35.495Z,10.34
2022-11-18T19:32:59.102Z,9.65
2022-11-18T19:34:21.572Z,9.43
2022-11-18T19:35:44.827Z,10.04
2022-11-18T19:37:08.938Z,9.38
2022-11-18T19:38:31.149Z,10.04
2022-11-18T19:41:25.527Z,9.95
2022-11-18T19:42:49.558Z,9.66
2022-11-18T19:44:12.037Z,10.25
2022-11-18T19:45:35.493Z,10.46
2022-11-18T19:46:59.659Z,10.07
2022-11-18T19:48:21.206Z,9.86
2022-11-18T19:49:42.982Z,9.27
2022-11-18T19:51:28.101Z,10.13
2022-11-18T19:52:50.455Z,9.46
2022-11-18T19:54:12.412Z,9.86
2022-11-18T19:55:35.258Z,8.92
2022-11-18T19:56:59.608Z,8.81
2022-11-18T19:58:22.975Z,9.40
2022-11-18T19:59:46.923Z,10.61
2022-11-18T20:01:19.999Z,9.86
2022-11-18T20:02:42.265Z,9.56
2022-11-18T20:04:13.059Z,9.94
2022-11-18T20:07:17.919Z,8.68
2022-11-18T20:11:54.171Z,8.93
2022-11-18T20:15:01.551Z,9.37
2022-11-18T20:16:25.144Z,9.03
2022-11-18T20:17:49.211Z,9.11
2022-11-18T20:19:13.106Z,9.14
2022-11-18T20:20:36.679Z,9.12
2022-11-18T20:21:59.090Z,9.31
2022-11-18T20:23:22.572Z,9.36
2022-11-18T20:24:44.717Z,8.90
2022-11-18T20:26:10.997Z,8.97
2022-11-18T20:28:49.598Z,8.74
2022-11-18T20:30:11.488Z,9.33
2022-11-18T20:31:35.182Z,9.81
2022-11-18T20:32:56.664Z,8.91
2022-11-18T20:35:35.010Z,10.31
2022-11-18T20:36:58.417Z,10.22
2022-11-18T20:38:22.555Z,9.66
2022-11-18T20:39:46.223Z,9.51
2022-11-18T20:42:52.841Z,9.16
2022-11-18T20:44:13.502Z,9.53
2022-11-18T20:45:37.047Z,9.92
2022-11-18T20:46:58.331Z,9.11
2022-11-18T20:48:19.927Z,8.66
2022-11-18T20:49:42.584Z,9.56
2022-11-18T20:52:21.694Z,10.46
2022-11-18T20:53:46.297Z,9.50
2022-11-18T20:55:11.429Z,9.63
2022-11-18T20:56:34.838Z,9.32
2022-11-18T20:58:02.057Z,10.23
2022-11-18T20:59:24.721Z,9.36
2022-11-18T21:00:50.614Z,9.16
2022-11-18T21:02:15.427Z,9.31
2022-11-18T21:03:38.782Z,7.90
2022-11-18T21:05:05.445Z,9.01
2022-11-18T21:06:28.287Z,8.99
2022-11-18T21:09:29.405Z,8.46
2022-11-18T21:14:32.626Z,9.65
2022-11-18T21:15:55.063Z,9.23
2022-11-18T21:17:30.587Z,9.37
2022-11-18T21:18:53.924Z,10.89
2022-11-18T21:20:36.020Z,9.46
2022-11-18T21:22:01.449Z,9.84
2022-11-18T21:23:22.842Z,9.31
2022-11-18T21:24:48.810Z,9.39
2022-11-18T21:26:13.424Z,8.82
2022-11-18T21:27:35.377Z,8.52
2022-11-18T21:28:58.630Z,9.13
2022-11-18T21:30:19.789Z,9.86
2022-11-18T21:31:43.818Z,9.50
2022-11-18T21:34:37.264Z,8.64
2022-11-18T21:35:58.727Z,9.14
2022-11-18T21:37:19.856Z,9.06
2022-11-18T21:38:57.547Z,9.56
2022-11-18T21:41:55.625Z,9.55
2022-11-18T21:43:15.925Z,9.47
2022-11-18T21:44:39.402Z,9.77
2022-11-18T21:46:03.352Z,9.65
2022-11-18T21:48:47.120Z,9.45
2022-11-18T21:50:09.356Z,9.43
2022-11-18T21:51:33.963Z,9.92
2022-11-18T21:52:55.172Z,10.17
2022-11-18T21:54:18.615Z,10.21
2022-11-18T21:55:40.236Z,9.91
2022-11-18T21:57:03.480Z,8.23
2022-11-18T21:58:27.153Z,10.73
2022-11-18T21:59:50.461Z,10.07
2022-11-18T22:01:13.759Z,10.11
2022-11-18T22:03:58.300Z,10.30
2022-11-18T22:05:20.633Z,9.73
2022-11-18T22:06:42.923Z,9.94
2022-11-18T22:08:05.407Z,11.19
2022-11-18T22:09:29.160Z,10.78
2022-11-18T22:10:50.265Z,10.85
2022-11-18T22:12:11.593Z,9.82
2022-11-18T22:26:21.882Z,8.43
2022-11-18T22:29:09.464Z,10.68
2022-11-18T22:30:30.718Z,11.17
2022-11-18T22:31:53.044Z,11.11
2022-11-18T22:33:14.531Z,11.73
2022-11-18T22:34:37.286Z,11.26
2022-11-18T22:36:02.556Z,8.42
2022-11-18T22:37:24.101Z,11.67
2022-11-18T22:38:45.532Z,11.25
2022-11-18T22:40:08.377Z,11.43
2022-11-18T22:41:29.694Z,11.67
2022-11-18T22:42:51.042Z,11.52
2022-11-18T22:44:13.748Z,10.72
2022-11-18T22:45:34.768Z,11.48
2022-11-18T22:46:56.612Z,11.06
2022-11-18T22:48:18.413Z,11.15
2022-11-18T22:49:39.886Z,10.49
2022-11-18T22:51:02.897Z,10.97
2022-11-18T22:52:24.477Z,11.19
2022-11-18T22:53:45.962Z,10.84
2022-11-18T22:55:07.848Z,10.52
2022-11-18T22:56:29.146Z,10.84
2022-11-18T22:57:50.615Z,10.22
2022-11-18T22:59:13.427Z,11.02
2022-11-18T23:00:35.285Z,9.97
2022-11-18T23:01:57.268Z,9.48
2022-11-18T23:03:18.667Z,9.61
2022-11-18T23:04:40.129Z,10.04
2022-11-18T23:06:01.588Z,9.77
2022-11-18T23:07:22.877Z,9.55
2022-11-18T23:08:44.562Z,10.46
2022-11-18T23:10:06.050Z,9.76
2022-11-18T23:11:27.525Z,9.71
2022-11-18T23:14:00.211Z,9.42
2022-11-18T23:15:23.013Z,9.47
2022-11-18T23:16:44.139Z,10.03
2022-11-18T23:18:11.159Z,9.96
2022-11-18T23:19:29.506Z,10.24
2022-11-18T23:20:51.414Z,10.50
2022-11-18T23:22:12.684Z,10.41
2022-11-18T23:23:36.485Z,10.13
2022-11-18T23:24:57.829Z,11.01
2022-11-18T23:26:19.331Z,11.01
2022-11-18T23:27:40.711Z,10.99
2022-11-18T23:29:02.203Z,10.41
2022-11-18T23:30:23.658Z,10.76
2022-11-18T23:31:45.220Z,10.45
2022-11-18T23:33:06.331Z,10.19
2022-11-18T23:34:27.684Z,9.87
2022-11-18T23:37:01.669Z,11.95
2022-11-18T23:38:22.735Z,10.14
2022-11-18T23:40:31.263Z,10.57
2022-11-18T23:41:53.571Z,9.99
2022-11-18T23:43:15.007Z,9.92
2022-11-18T23:44:36.538Z,9.91
2022-11-18T23:45:58.179Z,9.35
2022-11-18T23:47:19.679Z,9.39
2022-11-18T23:48:41.395Z,9.27
2022-11-18T23:50:03.306Z,9.47
2022-11-18T23:51:25.044Z,8.91
2022-11-18T23:52:46.206Z,9.59
2022-11-18T23:54:07.801Z,9.16
2022-11-18T23:55:30.141Z,8.99
2022-11-18T23:56:51.570Z,9.25
2022-11-18T23:58:14.307Z,9.07
2022-11-18T23:59:35.817Z,9.23
